Time;durP1;ratioP1;P1;durP2;ratioP2;P2;SDS_P1;SDS_P2;PMS_P1;PMS_P2;Temp;Humidity;BMP_temperature;BMP_pressure;BME280_temperature;BME280_humidity;BME280_pressure;Samples;Min_cycle;Max_cycle;Signal;HPM_P1;HPM_P2
2023/03/16 00:00:39;;;;;;;;;;;4.50;99.90;;;;;;4863296;29;1173;-62
2023/03/16 00:03:05;;;;;;;;;;;4.50;99.90;;;;;;4879393;29;920;-60
2023/03/16 00:05:32;;;;;;;;;;;4.50;99.90;;;;;;4861664;29;1181;-61
2023/03/16 00:07:58;;;;;;;;;;;4.50;99.90;;;;;;4860221;29;992;-60
2023/03/16 00:10:26;;;;;;;;;;;4.50;99.90;;;;;;4860422;29;1895;-62
2023/03/16 00:12:52;;;;;;;;;;;4.50;99.90;;;;;;4860657;29;1068;-61
2023/03/16 00:15:19;;;;;;;;;;;4.50;99.90;;;;;;4860404;29;1654;-61
2023/03/16 00:17:47;;;;;;;;;;;4.50;99.90;;;;;;4878056;29;1217;-60
2023/03/16 00:20:14;;;;;;;;;;;4.50;99.90;;;;;;4879260;29;1075;-61
2023/03/16 00:22:40;;;;;;;;;;;4.60;99.90;;;;;;4879038;29;881;-61
2023/03/16 00:25:07;;;;;;;;;;;4.60;99.90;;;;;;4879060;29;1075;-61
2023/03/16 00:27:34;;;;;;;;;;;4.60;99.90;;;;;;4861668;29;1142;-63
2023/03/16 00:30:01;;;;;;;;;;;4.60;99.90;;;;;;4860325;29;996;-62
2023/03/16 00:32:30;;;;;;;;;;;4.60;99.90;;;;;;4860485;29;1916;-62
2023/03/16 00:34:57;;;;;;;;;;;4.60;99.90;;;;;;4860544;29;1024;-63
2023/03/16 00:37:24;;;;;;;;;;;4.60;99.90;;;;;;4875627;29;1142;-61
2023/03/16 00:39:50;;;;;;;;;;;4.60;99.90;;;;;;4878897;29;957;-61
2023/03/16 00:42:17;;;;;;;;;;;4.60;99.90;;;;;;4878740;29;981;-61
2023/03/16 00:44:47;;;;;;;;;;;4.60;99.90;;;;;;4879756;29;1004;-60
2023/03/16 00:47:13;;;;;;;;;;;4.60;99.90;;;;;;4868096;29;1205;-63
2023/03/16 00:49:41;;;;;;;;;;;4.60;99.90;;;;;;4863345;29;993;-61
2023/03/16 00:52:08;;;;;;;;;;;4.60;99.90;;;;;;4863208;29;1974;-61
2023/03/16 00:54:35;;;;;;;;;;;4.60;99.90;;;;;;4863871;29;1008;-61
2023/03/16 00:57:02;;;;;;;;;;;4.60;99.90;;;;;;4858802;29;1261;-60
2023/03/16 00:59:29;;;;;;;;;;;4.60;99.90;;;;;;4881621;29;989;-59
2023/03/16 01:01:56;;;;;;;;;;;4.50;99.90;;;;;;4865887;29;993;-62
2023/03/16 01:04:22;;;;;;;;;;;4.50;99.90;;;;;;4881976;29;1008;-62
2023/03/16 01:06:48;;;;;;;;;;;4.50;99.90;;;;;;4871322;29;1189;-62
2023/03/16 01:09:14;;;;;;;;;;;4.50;99.90;;;;;;4862806;29;1005;-62
2023/03/16 01:11:44;;;;;;;;;;;4.50;99.90;;;;;;4863294;29;1911;-62
2023/03/16 01:14:10;;;;;;;;;;;4.50;99.90;;;;;;4863334;29;780;-61
2023/03/16 01:16:36;;;;;;;;;;;4.50;99.90;;;;;;4871704;29;1225;-61
2023/03/16 01:19:02;;;;;;;;;;;4.50;99.90;;;;;;4881525;29;1025;-61
2023/03/16 01:21:28;;;;;;;;;;;4.50;99.90;;;;;;4881706;29;750;-60
2023/03/16 01:23:55;;;;;;;;;;;4.50;99.90;;;;;;4881525;29;1063;-61
2023/03/16 01:26:24;;;;;;;;;;;4.40;99.90;;;;;;4874398;29;1241;-58
2023/03/16 01:28:50;;;;;;;;;;;4.40;99.90;;;;;;4846165;29;1131;-60
2023/03/16 01:31:16;;;;;;;;;;;4.50;99.90;;;;;;4862777;29;1903;-60
2023/03/16 01:33:42;;;;;;;;;;;4.40;99.90;;;;;;4863013;29;1156;-62
2023/03/16 01:36:12;;;;;;;;;;;4.50;99.90;;;;;;4868047;29;1812;-61
2023/03/16 01:38:39;;;;;;;;;;;4.50;99.90;;;;;;4881499;29;889;-61
2023/03/16 01:41:05;;;;;;;;;;;4.40;99.90;;;;;;4881240;29;852;-61
2023/03/16 01:43:33;;;;;;;;;;;4.50;99.90;;;;;;4881083;29;1044;-61
2023/03/16 01:46:05;;;;;;;;;;;4.50;99.90;;;;;;4876945;29;1182;-61
2023/03/16 01:48:36;;;;;;;;;;;4.50;99.90;;;;;;4862382;29;1042;-61
2023/03/16 01:51:06;;;;;;;;;;;4.50;99.90;;;;;;4831125;29;1912;-61
2023/03/16 01:53:32;;;;;;;;;;;4.50;99.90;;;;;;4862780;29;1064;-61
2023/03/16 01:56:02;;;;;;;;;;;4.50;99.90;;;;;;4865075;29;1277;-62
2023/03/16 01:58:29;;;;;;;;;;;4.50;99.90;;;;;;4880365;29;1099;-62
2023/03/16 02:00:57;;;;;;;;;;;4.50;99.90;;;;;;4880898;29;778;-61
2023/03/16 02:03:24;;;;;;;;;;;4.50;99.90;;;;;;4864349;29;1017;-62
2023/03/16 02:05:55;;;;;;;;;;;4.50;99.90;;;;;;4878060;29;1154;-61
2023/03/16 02:08:24;;;;;;;;;;;4.50;99.90;;;;;;4861898;29;1082;-61
2023/03/16 02:10:53;;;;;;;;;;;4.50;99.90;;;;;;4862474;29;1974;-61
2023/03/16 02:13:22;;;;;;;;;;;4.50;99.90;;;;;;4862620;29;1001;-60
2023/03/16 02:15:50;;;;;;;;;;;4.60;99.90;;;;;;4864096;29;1103;-59
2023/03/16 02:18:17;;;;;;;;;;;4.50;99.90;;;;;;4880179;29;1028;-60
2023/03/16 02:20:52;;;;;;;;;;;4.60;99.90;;;;;;4880191;29;1214;-61
2023/03/16 02:23:19;;;;;;;;;;;4.60;99.90;;;;;;4880637;29;893;-59
2023/03/16 02:25:53;;;;;;;;;;;4.60;99.90;;;;;;4878341;29;1215;-61
2023/03/16 02:28:38;;;;;;;;;;;4.60;99.90;;;;;;4861901;29;1059;-59
2023/03/16 02:31:04;;;;;;;;;;;4.60;99.90;;;;;;4861912;29;1969;-59
2023/03/16 02:33:32;;;;;;;;;;;4.60;99.90;;;;;;4861657;29;1093;-60
2023/03/16 02:35:58;;;;;;;;;;;4.70;99.90;;;;;;4865020;29;1158;-59
2023/03/16 02:38:24;;;;;;;;;;;4.70;99.90;;;;;;4863343;29;945;-61
2023/03/16 02:40:59;;;;;;;;;;;4.70;99.90;;;;;;4863839;29;910;-62
2023/03/16 02:43:32;;;;;;;;;;;4.60;99.90;;;;;;4880271;29;1009;-62
2023/03/16 02:45:59;;;;;;;;;;;4.70;99.90;;;;;;4876291;29;1142;-60
2023/03/16 02:48:34;;;;;;;;;;;4.70;99.90;;;;;;4861154;29;1048;-61
2023/03/16 02:51:00;;;;;;;;;;;4.70;99.90;;;;;;4861921;29;1911;-60
2023/03/16 02:53:26;;;;;;;;;;;4.70;99.90;;;;;;4861384;29;1037;-62
2023/03/16 02:55:53;;;;;;;;;;;4.70;99.90;;;;;;4847316;29;1336;-62
2023/03/16 02:58:19;;;;;;;;;;;4.70;99.90;;;;;;4863309;29;1075;-61
2023/03/16 03:00:45;;;;;;;;;;;4.70;99.90;;;;;;4863424;29;968;-60
2023/03/16 03:03:12;;;;;;;;;;;4.70;99.90;;;;;;4879922;29;1060;-59
2023/03/16 03:05:39;;;;;;;;;;;4.70;99.90;;;;;;4878932;29;1225;-59
2023/03/16 03:08:05;;;;;;;;;;;4.60;99.90;;;;;;4860932;29;1013;-60
2023/03/16 03:10:31;;;;;;;;;;;4.70;99.90;;;;;;4845269;29;989;-59
2023/03/16 03:12:57;;;;;;;;;;;4.60;99.90;;;;;;4861078;29;1988;-61
2023/03/16 03:15:24;;;;;;;;;;;4.60;99.90;;;;;;4861035;29;751;-61
2023/03/16 03:17:50;;;;;;;;;;;4.70;99.90;;;;;;4877922;29;1142;-61
2023/03/16 03:20:16;;;;;;;;;;;4.70;99.90;;;;;;4879543;29;942;-62
2023/03/16 03:22:44;;;;;;;;;;;4.70;99.90;;;;;;4879617;29;1092;-61
2023/03/16 03:25:11;;;;;;;;;;;4.70;99.90;;;;;;4879562;29;1001;-61
2023/03/16 03:27:37;;;;;;;;;;;4.70;99.90;;;;;;4863076;29;1204;-61
2023/03/16 03:30:03;;;;;;;;;;;4.70;99.90;;;;;;4861099;29;755;-59
2023/03/16 03:32:30;;;;;;;;;;;4.70;99.90;;;;;;4860740;29;1970;-60
2023/03/16 03:34:56;;;;;;;;;;;4.70;99.90;;;;;;4861023;29;1009;-62
2023/03/16 03:37:23;;;;;;;;;;;4.60;99.90;;;;;;4873773;29;1438;-59
2023/03/16 03:39:49;;;;;;;;;;;4.60;99.90;;;;;;4879072;29;857;-61
2023/03/16 03:42:15;;;;;;;;;;;4.60;99.90;;;;;;4879396;29;949;-59
2023/03/16 03:44:41;;;;;;;;;;;4.60;99.90;;;;;;4879248;29;1048;-61
2023/03/16 03:47:08;;;;;;;;;;;4.60;99.90;;;;;;4867100;29;1142;-61
2023/03/16 03:49:34;;;;;;;;;;;4.60;99.90;;;;;;4861106;29;1002;-59
2023/03/16 03:52:03;;;;;;;;;;;4.60;99.90;;;;;;4860662;29;1966;-60
2023/03/16 03:54:30;;;;;;;;;;;4.50;99.90;;;;;;4860732;29;1071;-61
2023/03/16 03:56:56;;;;;;;;;;;4.50;99.90;;;;;;4870338;29;1285;-62
2023/03/16 03:59:22;;;;;;;;;;;4.50;99.90;;;;;;4878855;29;876;-61
2023/03/16 04:01:48;;;;;;;;;;;4.50;99.90;;;;;;4878947;29;1088;-63
2023/03/16 04:04:14;;;;;;;;;;;4.50;99.90;;;;;;4862691;29;1126;-61
2023/03/16 04:06:41;;;;;;;;;;;4.50;99.90;;;;;;4852280;29;1138;-60
2023/03/16 04:09:07;;;;;;;;;;;4.50;99.90;;;;;;4878879;29;818;-61
2023/03/16 04:11:33;;;;;;;;;;;4.50;99.90;;;;;;4879000;29;1889;-59
2023/03/16 04:13:59;;;;;;;;;;;4.40;99.90;;;;;;4879128;29;1063;-59
2023/03/16 04:16:25;;;;;;;;;;;4.50;99.90;;;;;;4872757;29;1186;-61
2023/03/16 04:18:53;;;;;;;;;;;4.50;99.90;;;;;;4859864;29;1095;-61
2023/03/16 04:21:20;;;;;;;;;;;4.50;99.90;;;;;;4863838;29;1103;-59
2023/03/16 04:23:47;;;;;;;;;;;4.50;99.90;;;;;;4864183;29;933;-62
2023/03/16 04:26:13;;;;;;;;;;;4.50;99.90;;;;;;4851972;29;1355;-60
2023/03/16 04:28:39;;;;;;;;;;;4.50;99.90;;;;;;4882307;29;1075;-59
2023/03/16 04:31:07;;;;;;;;;;;4.50;99.90;;;;;;4882182;29;1976;-63
2023/03/16 04:33:34;;;;;;;;;;;4.40;99.90;;;;;;4882710;29;1048;-62
2023/03/16 04:36:01;;;;;;;;;;;4.50;99.90;;;;;;4880086;29;1205;-62
2023/03/16 04:38:27;;;;;;;;;;;4.50;99.90;;;;;;4863837;29;1048;-60
2023/03/16 04:40:54;;;;;;;;;;;4.60;99.90;;;;;;4864063;29;985;-60
2023/03/16 04:43:20;;;;;;;;;;;4.50;99.90;;;;;;4863775;29;1009;-61
2023/03/16 04:45:46;;;;;;;;;;;4.50;99.90;;;;;;4864680;29;1173;-63
2023/03/16 04:48:12;;;;;;;;;;;4.50;99.90;;;;;;4881932;29;1028;-60
2023/03/16 04:50:39;;;;;;;;;;;4.50;99.90;;;;;;4882171;29;1056;-61
2023/03/16 04:53:05;;;;;;;;;;;4.50;99.90;;;;;;4882201;29;1976;-60
2023/03/16 04:55:31;;;;;;;;;;;4.60;99.90;;;;;;4882191;29;1165;-60
2023/03/16 04:57:57;;;;;;;;;;;4.50;99.90;;;;;;4864035;29;1129;-61
2023/03/16 05:00:24;;;;;;;;;;;4.60;99.90;;;;;;4863458;29;1021;-60
2023/03/16 05:02:53;;;;;;;;;;;4.60;99.90;;;;;;4863310;29;981;-63
2023/03/16 05:05:20;;;;;;;;;;;4.60;99.90;;;;;;4863581;29;914;-61
2023/03/16 05:07:46;;;;;;;;;;;4.60;99.90;;;;;;4879051;29;1134;-61
2023/03/16 05:10:14;;;;;;;;;;;4.60;99.90;;;;;;4881880;29;968;-60
2023/03/16 05:12:40;;;;;;;;;;;4.60;99.90;;;;;;4882032;29;1883;-61
2023/03/16 05:15:06;;;;;;;;;;;4.60;99.90;;;;;;4882015;29;1048;-61
2023/03/16 05:17:33;;;;;;;;;;;4.60;99.90;;;;;;4867503;29;1238;-59
2023/03/16 05:19:59;;;;;;;;;;;4.60;99.90;;;;;;4863125;29;948;-61
2023/03/16 05:22:25;;;;;;;;;;;4.60;99.90;;;;;;4862855;29;1107;-61
2023/03/16 05:24:52;;;;;;;;;;;4.60;99.90;;;;;;4862996;29;1025;-61
2023/03/16 05:27:18;;;;;;;;;;;4.60;99.90;;;;;;4874351;29;1150;-60
2023/03/16 05:29:45;;;;;;;;;;;4.60;99.90;;;;;;4880559;29;1258;-60
2023/03/16 05:32:11;;;;;;;;;;;4.60;99.90;;;;;;4879348;29;1911;-61
2023/03/16 05:34:38;;;;;;;;;;;4.60;99.90;;;;;;4880908;29;1302;-62
2023/03/16 05:37:05;;;;;;;;;;;4.60;99.90;;;;;;4877393;29;1231;-61
2023/03/16 05:39:31;;;;;;;;;;;4.60;99.90;;;;;;4880925;29;1318;-60
2023/03/16 05:41:57;;;;;;;;;;;4.50;99.90;;;;;;4880811;29;1211;-61
2023/03/16 05:44:23;;;;;;;;;;;4.50;99.90;;;;;;4880810;29;1247;-62
2023/03/16 05:46:49;;;;;;;;;;;4.50;99.90;;;;;;4877252;29;1383;-61
2023/03/16 05:49:16;;;;;;;;;;;4.50;99.90;;;;;;4880481;29;1301;-60
2023/03/16 05:51:42;;;;;;;;;;;4.60;99.90;;;;;;4864331;29;1916;-59
2023/03/16 05:54:08;;;;;;;;;;;4.50;99.90;;;;;;4849005;29;1352;-60
2023/03/16 05:56:35;;;;;;;;;;;4.50;99.90;;;;;;4883527;29;1604;-61
2023/03/16 05:59:01;;;;;;;;;;;4.60;99.90;;;;;;4880792;29;1323;-60
2023/03/16 06:01:27;;;;;;;;;;;4.60;99.90;;;;;;4879430;29;1392;-61
2023/03/16 06:03:53;;;;;;;;;;;4.60;99.90;;;;;;4893265;29;1313;-61
2023/03/16 06:06:21;;;;;;;;;;;4.50;99.90;;;;;;4878252;29;1374;-60
2023/03/16 06:08:47;;;;;;;;;;;4.50;99.90;;;;;;4879771;29;1360;-62
2023/03/16 06:11:13;;;;;;;;;;;4.60;99.90;;;;;;4880197;29;1359;-64
2023/03/16 06:13:40;;;;;;;;;;;4.60;99.90;;;;;;4880143;29;1977;-61
2023/03/16 06:16:06;;;;;;;;;;;4.60;99.90;;;;;;4877299;29;1375;-60
2023/03/16 06:18:33;;;;;;;;;;;4.60;99.90;;;;;;4861926;29;989;-59
2023/03/16 06:20:59;;;;;;;;;;;4.60;99.90;;;;;;4862192;29;980;-63
2023/03/16 06:23:25;;;;;;;;;;;4.60;99.90;;;;;;4862384;29;989;-61
2023/03/16 06:25:54;;;;;;;;;;;4.60;99.90;;;;;;4862598;29;1796;-62
2023/03/16 06:28:21;;;;;;;;;;;4.70;99.90;;;;;;4880460;29;983;-60
2023/03/16 06:30:47;;;;;;;;;;;4.70;99.90;;;;;;4876411;29;1665;-64
2023/03/16 06:33:13;;;;;;;;;;;4.80;99.90;;;;;;4877969;29;1911;-60
2023/03/16 06:35:40;;;;;;;;;;;4.70;99.90;;;;;;4868650;29;1228;-60
2023/03/16 06:38:06;;;;;;;;;;;4.70;99.90;;;;;;4875979;29;1331;-61
2023/03/16 06:40:32;;;;;;;;;;;4.80;99.90;;;;;;4866869;29;1236;-60
2023/03/16 06:42:59;;;;;;;;;;;4.80;99.90;;;;;;4880066;29;1052;-61
2023/03/16 06:45:26;;;;;;;;;;;4.80;99.90;;;;;;4879954;29;739;-61
2023/03/16 06:47:52;;;;;;;;;;;4.90;99.90;;;;;;4877593;29;1258;-61
2023/03/16 06:50:18;;;;;;;;;;;4.90;99.90;;;;;;4878384;29;1313;-60
2023/03/16 06:52:44;;;;;;;;;;;4.90;99.90;;;;;;4879933;29;1903;-59
2023/03/16 06:55:11;;;;;;;;;;;4.90;99.90;;;;;;4863551;29;759;-60
2023/03/16 06:57:37;;;;;;;;;;;4.90;99.90;;;;;;4864826;29;1111;-60
2023/03/16 07:00:06;;;;;;;;;;;5.00;99.90;;;;;;4861418;29;998;-62
2023/03/16 07:02:34;;;;;;;;;;;5.00;99.90;;;;;;4879086;29;1201;-60
2023/03/16 07:05:01;;;;;;;;;;;5.00;99.90;;;;;;4880199;29;992;-61
2023/03/16 07:07:27;;;;;;;;;;;5.00;99.90;;;;;;4879106;29;1216;-61
2023/03/16 07:09:53;;;;;;;;;;;5.10;99.90;;;;;;4863560;29;933;-61
2023/03/16 07:12:19;;;;;;;;;;;5.10;99.90;;;;;;4880243;29;1915;-62
2023/03/16 07:14:46;;;;;;;;;;;5.10;99.90;;;;;;4879967;29;935;-60
2023/03/16 07:17:12;;;;;;;;;;;5.10;99.90;;;;;;4868487;29;1208;-62
2023/03/16 07:19:38;;;;;;;;;;;5.30;99.90;;;;;;4860291;29;1206;-62
2023/03/16 07:22:04;;;;;;;;;;;5.20;99.90;;;;;;4861648;29;984;-60
2023/03/16 07:24:31;;;;;;;;;;;5.30;99.90;;;;;;4861458;29;1068;-62
2023/03/16 07:26:57;;;;;;;;;;;5.30;99.90;;;;;;4868324;29;1189;-61
2023/03/16 07:29:23;;;;;;;;;;;5.30;99.90;;;;;;4877694;29;1045;-62
2023/03/16 07:31:50;;;;;;;;;;;5.30;99.90;;;;;;4870373;29;1987;-60
2023/03/16 07:34:17;;;;;;;;;;;5.30;99.90;;;;;;4882265;29;1661;-61
2023/03/16 07:36:43;;;;;;;;;;;5.30;99.90;;;;;;4873242;29;1145;-64
2023/03/16 07:39:13;;;;;;;;;;;5.30;99.90;;;;;;4878050;29;1410;-60
2023/03/16 07:41:39;;;;;;;;;;;5.30;99.90;;;;;;4854064;29;1388;-62
2023/03/16 07:44:05;;;;;;;;;;;5.40;99.90;;;;;;4869272;29;1244;-60
2023/03/16 07:46:31;;;;;;;;;;;5.30;99.90;;;;;;4869791;29;1227;-61
2023/03/16 07:48:57;;;;;;;;;;;5.30;99.90;;;;;;4872458;29;1227;-61
2023/03/16 07:51:24;;;;;;;;;;;5.40;99.90;;;;;;4880284;29;826;-60
2023/03/16 07:53:50;;;;;;;;;;;5.40;99.90;;;;;;4879888;29;1994;-62
2023/03/16 07:56:16;;;;;;;;;;;5.40;99.90;;;;;;4880016;29;1517;-59
2023/03/16 07:58:42;;;;;;;;;;;5.40;99.90;;;;;;4864953;29;912;-61
2023/03/16 08:01:10;;;;;;;;;;;5.40;99.90;;;;;;4871042;29;1179;-63
2023/03/16 08:03:37;;;;;;;;;;;5.40;99.90;;;;;;4884011;29;1885;-62
2023/03/16 08:06:04;;;;;;;;;;;5.30;99.90;;;;;;4880419;29;1079;-61
2023/03/16 08:08:31;;;;;;;;;;;5.40;99.90;;;;;;4865416;29;1424;-61
2023/03/16 08:10:57;;;;;;;;;;;5.40;99.90;;;;;;4865318;29;1869;-61
2023/03/16 08:13:23;;;;;;;;;;;5.30;99.90;;;;;;4865201;29;1911;-62
2023/03/16 08:15:57;;;;;;;;;;;5.40;99.90;;;;;;4865791;29;1155;-62
2023/03/16 08:18:24;;;;;;;;;;;5.40;99.90;;;;;;4883218;29;1187;-62
2023/03/16 08:20:50;;;;;;;;;;;5.40;99.90;;;;;;4884629;29;898;-62
2023/03/16 08:23:16;;;;;;;;;;;5.50;99.90;;;;;;4884761;29;1063;-58
2023/03/16 08:25:42;;;;;;;;;;;5.50;99.90;;;;;;4884036;29;855;-61
2023/03/16 08:28:09;;;;;;;;;;;5.50;99.90;;;;;;4865979;29;1321;-59
2023/03/16 08:30:36;;;;;;;;;;;5.50;99.90;;;;;;4865349;29;810;-64
2023/03/16 08:33:03;;;;;;;;;;;5.60;99.90;;;;;;4864982;29;1935;-60
2023/03/16 08:35:29;;;;;;;;;;;5.60;99.90;;;;;;4865381;29;985;-62
2023/03/16 08:37:55;;;;;;;;;;;5.60;99.90;;;;;;4880144;29;1069;-60
2023/03/16 08:40:24;;;;;;;;;;;5.50;99.90;;;;;;4881335;29;1899;-62
2023/03/16 08:42:51;;;;;;;;;;;5.60;99.90;;;;;;4883496;29;1029;-63
2023/03/16 08:45:18;;;;;;;;;;;5.50;99.90;;;;;;4883445;29;996;-60
2023/03/16 08:47:44;;;;;;;;;;;5.50;99.90;;;;;;4868659;29;1222;-62
2023/03/16 08:50:12;;;;;;;;;;;5.50;99.90;;;;;;4864878;29;1048;-62
2023/03/16 08:52:39;;;;;;;;;;;5.50;99.90;;;;;;4877913;29;2792;-62
2023/03/16 08:55:06;;;;;;;;;;;5.50;99.90;;;;;;4881888;29;1557;-63
2023/03/16 08:57:32;;;;;;;;;;;5.50;99.90;;;;;;4881004;29;1304;-59
2023/03/16 09:00:00;;;;;;;;;;;5.50;99.90;;;;;;4876627;29;1518;-62
2023/03/16 09:02:26;;;;;;;;;;;5.50;99.90;;;;;;4864084;29;985;-61
2023/03/16 09:04:52;;;;;;;;;;;5.50;99.90;;;;;;4864071;29;954;-60
2023/03/16 09:07:19;;;;;;;;;;;5.50;99.90;;;;;;4874334;29;1193;-61
2023/03/16 09:09:45;;;;;;;;;;;5.60;99.90;;;;;;4867705;29;1581;-61
2023/03/16 09:12:11;;;;;;;;;;;5.60;99.90;;;;;;4864612;29;1903;-62
2023/03/16 09:14:38;;;;;;;;;;;5.60;99.90;;;;;;4864283;29;1005;-61
2023/03/16 09:17:06;;;;;;;;;;;5.60;99.90;;;;;;4855696;29;1134;-62
2023/03/16 09:19:33;;;;;;;;;;;5.60;99.90;;;;;;4882612;29;876;-62
2023/03/16 09:21:59;;;;;;;;;;;5.60;99.90;;;;;;4882593;29;1063;-61
2023/03/16 09:24:25;;;;;;;;;;;5.60;99.90;;;;;;4882273;29;1007;-61
2023/03/16 09:26:51;;;;;;;;;;;5.60;99.90;;;;;;4873307;29;1589;-62
2023/03/16 09:29:17;;;;;;;;;;;5.60;99.90;;;;;;4881828;29;1083;-60
2023/03/16 09:31:44;;;;;;;;;;;5.70;99.90;;;;;;4863526;29;958;-61
2023/03/16 09:34:11;;;;;;;;;;;5.60;99.90;;;;;;4863677;29;2032;-62
2023/03/16 09:36:37;;;;;;;;;;;5.60;99.90;;;;;;4867931;29;1197;-59
2023/03/16 09:39:03;;;;;;;;;;;5.70;99.90;;;;;;4880038;29;1083;-61
2023/03/16 09:41:29;;;;;;;;;;;5.70;99.90;;;;;;4882009;29;921;-59
2023/03/16 09:43:55;;;;;;;;;;;5.70;99.90;;;;;;4882102;29;993;-60
2023/03/16 09:46:27;;;;;;;;;;;5.70;99.90;;;;;;4878741;29;1134;-60
2023/03/16 09:48:55;;;;;;;;;;;5.80;99.90;;;;;;4867779;29;1535;-61
2023/03/16 09:51:36;;;;;;;;;;;5.80;99.90;;;;;;4871455;29;1417;-60
2023/03/16 09:54:05;;;;;;;;;;;5.90;99.90;;;;;;4882444;29;1907;-62
2023/03/16 09:56:38;;;;;;;;;;;5.90;99.90;;;;;;4878265;29;1339;-61
2023/03/16 09:59:12;;;;;;;;;;;6.00;99.90;;;;;;4881583;29;1526;-62
2023/03/16 10:01:38;;;;;;;;;;;6.00;99.90;;;;;;4863135;29;1060;-61
2023/03/16 10:04:07;;;;;;;;;;;6.00;99.90;;;;;;4863294;29;1076;-61
2023/03/16 10:06:37;;;;;;;;;;;6.00;99.90;;;;;;4850698;29;1164;-62
2023/03/16 10:09:22;;;;;;;;;;;6.10;99.90;;;;;;4881581;29;953;-63
2023/03/16 10:11:52;;;;;;;;;;;6.10;99.90;;;;;;4881591;29;1020;-60
2023/03/16 10:14:23;;;;;;;;;;;6.20;99.90;;;;;;4881335;29;1981;-61
2023/03/16 10:16:51;;;;;;;;;;;6.30;99.90;;;;;;4873695;29;1133;-60
2023/03/16 10:19:20;;;;;;;;;;;6.40;99.90;;;;;;4863064;29;1009;-59
2023/03/16 10:21:47;;;;;;;;;;;6.40;99.90;;;;;;4862558;29;940;-60
2023/03/16 10:24:52;;;;;;;;;;;6.40;99.90;;;;;;4862727;29;1009;-62
2023/03/16 10:27:21;;;;;;;;;;;6.50;99.90;;;;;;4823810;29;1575;-62
2023/03/16 10:29:47;;;;;;;;;;;6.50;99.90;;;;;;4823596;29;1060;-59
2023/03/16 10:32:15;;;;;;;;;;;6.50;99.90;;;;;;4842220;29;1903;-62
2023/03/16 10:34:44;;;;;;;;;;;6.60;99.90;;;;;;4845979;29;1283;-59
2023/03/16 10:37:12;;;;;;;;;;;6.60;99.90;;;;;;4870688;29;1159;-58
2023/03/16 10:39:41;;;;;;;;;;;6.70;99.90;;;;;;4878504;29;1657;-58
2023/03/16 10:42:15;;;;;;;;;;;6.70;99.90;;;;;;4876828;29;1535;-58
2023/03/16 10:44:42;;;;;;;;;;;6.80;99.90;;;;;;4880551;29;1585;-59
2023/03/16 10:47:16;;;;;;;;;;;6.90;99.90;;;;;;4879416;29;1190;-59
2023/03/16 10:49:47;;;;;;;;;;;7.00;99.90;;;;;;4865242;29;1549;-58
2023/03/16 10:52:18;;;;;;;;;;;7.00;99.90;;;;;;4862003;29;864;-60
2023/03/16 10:55:08;;;;;;;;;;;7.10;99.90;;;;;;4861848;29;1012;-61
2023/03/16 10:57:35;;;;;;;;;;;7.10;99.90;;;;;;4853021;29;1854;-60
2023/03/16 11:00:13;;;;;;;;;;;7.20;99.90;;;;;;4861980;29;1534;-60
2023/03/16 11:02:39;;;;;;;;;;;7.30;99.90;;;;;;4861806;29;1047;-58
2023/03/16 11:05:12;;;;;;;;;;;7.40;99.90;;;;;;4861889;29;942;-60
2023/03/16 11:07:38;;;;;;;;;;;7.40;99.90;;;;;;4860718;29;1139;-59
2023/03/16 11:10:13;;;;;;;;;;;7.50;99.90;;;;;;4861779;29;1104;-59
2023/03/16 11:12:39;;;;;;;;;;;7.50;99.90;;;;;;4861554;29;1907;-59
2023/03/16 11:15:12;;;;;;;;;;;7.60;99.90;;;;;;4861760;29;1529;-62
2023/03/16 11:17:43;;;;;;;;;;;7.70;99.90;;;;;;4860466;29;1185;-61
2023/03/16 11:20:30;;;;;;;;;;;7.70;99.90;;;;;;4861706;29;1011;-60
2023/03/16 11:22:58;;;;;;;;;;;7.70;99.90;;;;;;4861175;29;1729;-61
2023/03/16 11:25:40;;;;;;;;;;;7.80;99.90;;;;;;4861569;29;981;-59
2023/03/16 11:28:12;;;;;;;;;;;7.90;99.90;;;;;;4845245;29;1174;-58
2023/03/16 11:30:45;;;;;;;;;;;8.00;99.90;;;;;;4842949;29;1580;-59
2023/03/16 11:33:12;;;;;;;;;;;8.10;99.90;;;;;;4845355;29;1903;-59
2023/03/16 11:35:57;;;;;;;;;;;8.30;99.90;;;;;;4838340;29;1243;-59
2023/03/16 11:38:32;;;;;;;;;;;8.30;99.90;;;;;;4843297;29;1286;-59
2023/03/16 11:41:00;;;;;;;;;;;8.50;99.90;;;;;;4845407;29;1107;-60
2023/03/16 11:43:42;;;;;;;;;;;8.60;99.90;;;;;;4842850;29;1009;-61
2023/03/16 11:46:26;;;;;;;;;;;8.70;99.90;;;;;;4842732;29;1808;-61
2023/03/16 11:48:52;;;;;;;;;;;8.80;99.90;;;;;;4861268;29;1558;-58
2023/03/16 11:51:35;;;;;;;;;;;8.80;99.90;;;;;;4861327;29;1000;-59
2023/03/16 11:54:10;;;;;;;;;;;8.70;99.90;;;;;;4861602;29;1938;-59
2023/03/16 11:56:51;;;;;;;;;;;8.80;99.90;;;;;;4866269;29;1151;-58
2023/03/16 11:59:29;;;;;;;;;;;8.90;99.90;;;;;;4863574;29;1573;-59
2023/03/16 12:02:04;;;;;;;;;;;9.00;99.90;;;;;;4879795;29;1016;-62
2023/03/16 12:04:39;;;;;;;;;;;9.00;99.90;;;;;;4879715;29;1018;-59
2023/03/16 12:07:05;;;;;;;;;;;9.00;99.90;;;;;;4871640;29;1161;-61
2023/03/16 12:09:47;;;;;;;;;;;9.00;99.90;;;;;;4861296;29;913;-59
2023/03/16 12:12:22;;;;;;;;;;;9.00;99.90;;;;;;4861123;29;904;-60
2023/03/16 12:14:57;;;;;;;;;;;9.10;99.90;;;;;;4860856;29;1903;-59
2023/03/16 12:17:26;;;;;;;;;;;9.20;99.90;;;;;;4870449;29;1192;-59
2023/03/16 12:19:52;;;;;;;;;;;9.20;99.90;;;;;;4879757;29;1008;-59
2023/03/16 12:22:23;;;;;;;;;;;9.20;99.90;;;;;;4879498;29;985;-60
2023/03/16 12:24:49;;;;;;;;;;;9.20;99.90;;;;;;4879551;29;1028;-60
2023/03/16 12:27:17;;;;;;;;;;;9.30;99.90;;;;;;4870212;29;1146;-61
2023/03/16 12:29:57;;;;;;;;;;;9.20;99.90;;;;;;4861215;29;1021;-62
2023/03/16 12:32:44;;;;;;;;;;;9.30;99.90;;;;;;4861347;29;976;-59
2023/03/16 12:35:29;;;;;;;;;;;9.30;99.90;;;;;;4826117;29;1125;-62
2023/03/16 12:37:55;;;;;;;;;;;9.30;99.90;;;;;;4858570;29;1208;-61
2023/03/16 12:40:32;;;;;;;;;;;9.20;99.90;;;;;;4878551;29;1106;-59
2023/03/16 12:43:24;;;;;;;;;;;9.30;99.90;;;;;;4883742;29;1114;-60
2023/03/16 12:46:10;;;;;;;;;;;9.30;99.90;;;;;;4883428;29;965;-61
2023/03/16 12:48:38;;;;;;;;;;;9.30;99.90;;;;;;4876852;29;1627;-61
2023/03/16 12:51:05;;;;;;;;;;;9.50;99.90;;;;;;4883746;29;1001;-61
2023/03/16 12:53:38;;;;;;;;;;;9.40;99.90;;;;;;4883385;29;1976;-60
2023/03/16 12:56:08;;;;;;;;;;;9.60;99.90;;;;;;4882683;29;1324;-61
2023/03/16 12:58:35;;;;;;;;;;;9.60;99.90;;;;;;4864140;29;1196;-62
2023/03/16 13:01:07;;;;;;;;;;;9.60;99.90;;;;;;4879941;29;1554;-58
2023/03/16 13:03:33;;;;;;;;;;;9.80;99.90;;;;;;4883176;29;1075;-61
2023/03/16 13:06:01;;;;;;;;;;;9.90;99.90;;;;;;4882898;29;1082;-60
2023/03/16 13:08:38;;;;;;;;;;;10.00;99.90;;;;;;4864201;29;1221;-61
2023/03/16 13:11:08;;;;;;;;;;;10.00;99.90;;;;;;4864181;29;1024;-63
2023/03/16 13:13:46;;;;;;;;;;;10.00;99.90;;;;;;4864091;29;1911;-62
2023/03/16 13:16:22;;;;;;;;;;;10.10;99.90;;;;;;4863912;29;1193;-61
2023/03/16 13:18:51;;;;;;;;;;;10.20;99.90;;;;;;4882510;29;989;-61
2023/03/16 13:21:20;;;;;;;;;;;10.30;99.90;;;;;;4882464;29;1004;-61
2023/03/16 13:23:54;;;;;;;;;;;10.30;99.90;;;;;;4882314;29;1012;-62
2023/03/16 13:26:36;;;;;;;;;;;10.50;99.90;;;;;;4880479;29;1114;-62
2023/03/16 13:29:17;;;;;;;;;;;10.50;99.90;;;;;;4864183;29;1039;-59
2023/03/16 13:31:43;;;;;;;;;;;10.50;99.90;;;;;;4863182;29;1036;-62
2023/03/16 13:34:28;;;;;;;;;;;10.50;99.90;;;;;;4863585;29;1907;-60
2023/03/16 13:36:56;;;;;;;;;;;10.50;99.90;;;;;;4852076;29;1296;-61
2023/03/16 13:39:23;;;;;;;;;;;10.40;99.90;;;;;;4880199;29;1102;-61
2023/03/16 13:41:58;;;;;;;;;;;10.50;99.90;;;;;;4882061;29;810;-62
2023/03/16 13:44:25;;;;;;;;;;;10.50;99.90;;;;;;4882124;29;795;-61
2023/03/16 13:46:51;;;;;;;;;;;10.50;99.90;;;;;;4876445;29;1154;-60
2023/03/16 13:49:18;;;;;;;;;;;10.60;99.90;;;;;;4877546;29;1630;-60
2023/03/16 13:51:46;;;;;;;;;;;10.70;99.90;;;;;;4881257;29;1056;-61
2023/03/16 13:54:18;;;;;;;;;;;10.80;99.90;;;;;;4881550;29;1974;-59
2023/03/16 13:56:44;;;;;;;;;;;10.80;99.90;;;;;;4876794;29;1225;-61
2023/03/16 13:59:10;;;;;;;;;;;10.80;99.90;;;;;;4864745;29;1590;-59
2023/03/16 14:01:36;;;;;;;;;;;10.90;99.90;;;;;;4881518;29;1055;-62
2023/03/16 14:04:10;;;;;;;;;;;10.90;99.90;;;;;;4881853;29;1099;-60
2023/03/16 14:06:37;;;;;;;;;;;10.90;99.90;;;;;;4880958;29;1205;-61
2023/03/16 14:09:05;;;;;;;;;;;11.00;99.90;;;;;;4881837;29;856;-61
2023/03/16 14:11:31;;;;;;;;;;;11.00;99.90;;;;;;4881636;29;997;-61
2023/03/16 14:13:58;;;;;;;;;;;11.20;99.90;;;;;;4881652;29;1911;-61
2023/03/16 14:16:27;;;;;;;;;;;11.30;99.90;;;;;;4879152;29;1593;-61
2023/03/16 14:18:57;;;;;;;;;;;11.50;99.90;;;;;;4862906;29;1060;-60
2023/03/16 14:21:24;;;;;;;;;;;11.60;99.90;;;;;;4862819;29;1111;-58
2023/03/16 14:23:58;;;;;;;;;;;11.60;99.90;;;;;;4862336;29;1029;-60
2023/03/16 14:26:24;;;;;;;;;;;11.70;99.90;;;;;;4863657;29;1130;-61
2023/03/16 14:28:56;;;;;;;;;;;11.70;99.90;;;;;;4881569;29;1000;-59
2023/03/16 14:31:29;;;;;;;;;;;11.60;99.90;;;;;;4881248;29;950;-61
2023/03/16 14:33:59;;;;;;;;;;;11.60;99.90;;;;;;4881860;29;1980;-61
2023/03/16 14:36:32;;;;;;;;;;;11.50;99.90;;;;;;4879386;29;1122;-62
2023/03/16 14:39:08;;;;;;;;;;;11.50;99.90;;;;;;4866889;29;1584;-60
2023/03/16 14:41:37;;;;;;;;;;;11.50;99.90;;;;;;4880793;29;1309;-61
2023/03/16 14:44:03;;;;;;;;;;;11.60;99.90;;;;;;4881361;29;980;-58
2023/03/16 14:46:36;;;;;;;;;;;11.60;99.90;;;;;;4878454;29;1190;-61
2023/03/16 14:49:06;;;;;;;;;;;11.50;99.90;;;;;;4874705;29;1534;-61
2023/03/16 14:51:34;;;;;;;;;;;11.50;99.90;;;;;;4864979;29;1043;-61